Details From EGGP - Liverpool
To EGSS - London Stansted
Flight Number -
Tags decoded
Created
Modified
Stats Distance 158 nm / 293 km
Max Altitude 0 ft / 0 m
Waypoints 6
Social Downloads 4
Likes 0
Share VATSIM

Download

Looking for another format? Having issues loading an existing format? Contact us
Advertisement - Login to hide

Notes

Requested: EGGP BPK26 HEMEL SED04 BKY15 EGSS

Route

EGGP BPK26 HEMEL SED04 BKY15 EGSS

ID Type Via Altitude Latitude Longitude Leg Dist Tot Dist Heading (true) Name
O EGGP APT - 0 ft / 0 m 53.33363˚ -2.84977˚ - 0 nm - Liverpool
BPK26 FIX - 0 ft / 0 m 52.12750˚ -0.46861˚ 112 nm 112 nm 129° / 131° -
HEMEL FIX - 0 ft / 0 m 51.80556˚ -0.41944˚ 19 nm 132 nm 175° / 175° -
SED04 FIX - 0 ft / 0 m 51.82813˚ 0.14370˚ 20 nm 153 nm 86° / 87° -
BKY15 FIX - 0 ft / 0 m 51.87344˚ 0.21566˚ 3 nm 157 nm 44° / 44° -
O EGSS APT - 0 ft / 0 m 51.88510˚ 0.23496˚ 1 nm 158 nm 46° / 46° London Stansted

Altitude Profile

Advertisement - Login to hide

EGGP

Details ICAO EGGP (LPL)
Name Liverpool
Region United Kingdom
Timezone Europe/London (UTC+1.0)
Stats Elevation 80 ft / 24 m (AMSL)
Location 53.333632° -2.849769°
Runways 1
Magnetic Variation 1.606° W

METAR

EGGP 212120Z 29011KT CAVOK 13/10 Q1018

Decode

TAF

TAF EGGP 211701Z 2118/2218 30014KT CAVOK PROB30 TEMPO 2118/2120 8000 SHRA PROB40 TEMPO 2120/2207 8000 BECMG 2203/2206 03007KT

Decode

Departure Runways

ID Width Length Bearing (true) Bearing (mag) Surface Threshold Offset Overrun Length
09 151 ft / 46 m 7,466 ft / 2,276 m 85.59° 87.20° Asphalt 180 ft / 55 m 0 ft / 0 m
27 151 ft / 46 m 7,466 ft / 2,276 m 265.61° 267.22° Asphalt 0 ft / 0 m 0 ft / 0 m

EGSS

Details ICAO EGSS (STN)
Name London Stansted
Region United Kingdom
Timezone Europe/London (UTC+1.0)
Stats Elevation 348 ft / 106 m (AMSL)
Location 51.885097° 0.234962°
Runways 1
Magnetic Variation 0.299° W

METAR

EGSS 212120Z AUTO 35003KT 9999 //////CB 16/09 Q1015

Decode

TAF

TAF EGSS 211701Z 2118/2224 01008KT 9999 FEW040 PROB30 TEMPO 2118/2119 4000 +SHRA TSGS PROB30 TEMPO 2123/2208 8000 SHRA PROB30 TEMPO 2214/2218 4000 +SHRA

Decode

Destination Runways

ID Width Length Bearing (true) Bearing (mag) Surface Threshold Offset Overrun Length
04 151 ft / 46 m 10,011 ft / 3,052 m 42.79° 43.09° Asphalt 994 ft / 303 m 0 ft / 0 m
22 151 ft / 46 m 10,011 ft / 3,052 m 222.81° 223.11° Asphalt 0 ft / 0 m 0 ft / 0 m

Approach Navaids

Runway Type Ident Frequency Range Bearing (true) Bearing (mag) Slope Elevation
04 Localiser ISED 110.50 MHz 18 nm / 33 km 42.80° 43.10° - 348 ft / 106 m (AMSL)
04 Glidescope ISED 110.50 MHz 10 nm / 19 km 42.80° 43.10° 3.00° 348 ft / 106 m (AMSL)
04 DME ISED 110.50 MHz 18 nm / 33 km - - - 348 ft / 106 m (AMSL)
22 Localiser ISX 110.50 MHz 18 nm / 33 km 222.80° 223.10° - 348 ft / 106 m (AMSL)
22 Glidescope ISX 110.50 MHz 10 nm / 19 km 222.80° 223.10° 3.00° 348 ft / 106 m (AMSL)
22 DME ISX 110.50 MHz 18 nm / 33 km - - - 348 ft / 106 m (AMSL)

Popular Alternatives